Time;durP1;ratioP1;P1;durP2;ratioP2;P2;SDS_P1;SDS_P2;PMS_P1;PMS_P2;Temp;Humidity;BMP_temperature;BMP_pressure;BME280_temperature;BME280_humidity;BME280_pressure;Samples;Min_cycle;Max_cycle;Signal;HPM_P1;HPM_P2
2021/08/22 00:01:10;;;;;;;;;7.33;5.00;;;;;22.86;58.47;101185.91;5057224;28;45476;-56
2021/08/22 00:03:36;;;;;;;;;6.00;6.00;;;;;22.88;58.45;101179.44;5074531;27;45313;-56
2021/08/22 00:06:01;;;;;;;;;6.67;5.67;;;;;22.91;58.39;101178.34;5042525;28;45444;-54
2021/08/22 00:08:27;;;;;;;;;10.25;9.75;;;;;22.94;58.49;101180.00;5042133;28;47167;-55
2021/08/22 00:10:53;;;;;;;;;11.25;9.25;;;;;22.95;58.47;101173.59;5061606;28;45324;-53
2021/08/22 00:13:19;;;;;;;;;7.50;6.00;;;;;22.97;58.29;101169.81;5059242;28;45729;-53
2021/08/22 00:15:46;;;;;;;;;7.33;6.67;;;;;22.98;58.33;101173.41;5094713;27;45481;-54
2021/08/22 00:18:12;;;;;;;;;5.00;5.00;;;;;22.98;58.81;101167.97;5062063;28;47374;-55
2021/08/22 00:20:38;;;;;;;;;7.00;7.00;;;;;22.98;58.69;101176.09;5047315;28;45800;-54
2021/08/22 00:23:03;;;;;;;;;8.00;5.00;;;;;22.99;58.33;101172.41;5061705;28;45403;-55
2021/08/22 00:25:29;;;;;;;;;5.00;5.00;;;;;22.99;58.31;101178.69;5061948;27;45512;-54
2021/08/22 00:27:54;;;;;;;;;5.50;5.50;;;;;23.00;58.35;101179.59;5094461;27;45413;-55
2021/08/22 00:30:20;;;;;;;;;7.00;7.00;;;;;23.00;58.64;101177.75;5061697;28;45645;-55
2021/08/22 00:32:45;;;;;;;;;6.67;5.67;;;;;22.99;58.54;101173.28;5056796;28;45451;-53
2021/08/22 00:35:11;;;;;;;;;9.00;6.00;;;;;22.99;58.25;101176.00;5062113;28;45298;-55
2021/08/22 00:37:36;;;;;;;;;8.00;8.00;;;;;22.97;58.79;101186.06;5061297;28;46305;-55
2021/08/22 00:40:02;;;;;;;;;9.00;6.00;;;;;22.98;58.83;101179.69;5057606;28;46634;-56
2021/08/22 00:42:35;;;;;;;;;7.00;7.00;;;;;22.98;58.67;101185.09;5061599;28;45443;-55
2021/08/22 00:45:05;;;;;;;;;5.50;5.50;;;;;22.98;58.63;101179.69;5094125;27;45611;-55
2021/08/22 00:47:31;;;;;;;;;5.50;5.50;;;;;22.99;58.84;101183.25;5061200;28;47648;-56
2021/08/22 00:49:58;;;;;;;;;5.75;5.75;;;;;23.00;58.71;101180.47;5060132;28;46114;-54
2021/08/22 00:52:26;;;;;;;;;6.25;6.00;;;;;22.98;58.53;101185.09;5061520;28;45270;-55
2021/08/22 00:54:51;;;;;;;;;6.00;6.00;;;;;22.97;58.80;101182.50;5061003;28;45509;-54
2021/08/22 00:57:17;;;;;;;;;7.50;7.50;;;;;22.98;58.89;101189.63;5059857;28;47199;-54
2021/08/22 00:59:43;;;;;;;;;4.25;4.25;;;;;22.96;59.13;101186.16;5061474;28;45654;-56
2021/08/22 01:02:56;;;;;;;;;5.00;5.00;;;;;22.94;58.96;101188.97;5061458;28;45700;-55
2021/08/22 01:05:38;;;;;;;;;6.00;5.00;;;;;22.94;59.01;101194.38;5042043;28;45417;-55
2021/08/22 01:08:15;;;;;;;;;5.25;5.00;;;;;22.95;58.76;101189.84;5060728;28;48391;-54
2021/08/22 01:10:43;;;;;;;;;7.75;6.00;;;;;22.94;58.87;101194.38;5059492;28;45856;-54
2021/08/22 01:13:13;;;;;;;;;6.25;6.25;;;;;22.93;58.80;101195.38;5064977;28;45401;-53
2021/08/22 01:15:43;;;;;;;;;4.25;4.25;;;;;22.93;58.82;101194.50;5068555;28;45579;-53
2021/08/22 01:18:12;;;;;;;;;5.75;5.75;;;;;22.92;58.71;101193.63;5061771;27;47828;-55
2021/08/22 01:20:40;;;;;;;;;6.25;6.25;;;;;22.89;58.66;101191.13;5068620;28;46043;-55
2021/08/22 01:23:08;;;;;;;;;4.75;4.00;;;;;22.87;58.80;101195.78;5065129;28;45406;-53
2021/08/22 01:25:36;;;;;;;;;6.33;5.00;;;;;22.85;58.57;101203.09;5069732;28;45474;-55
2021/08/22 01:28:05;;;;;;;;;6.00;5.00;;;;;22.85;58.49;101205.81;5065753;27;47899;-54
2021/08/22 01:30:35;;;;;;;;;5.33;5.33;;;;;22.80;58.46;101211.50;5052721;27;45766;-56
2021/08/22 01:33:01;;;;;;;;;5.00;5.00;;;;;22.77;58.06;101210.84;5074952;27;45518;-55
2021/08/22 01:35:27;;;;;;;;;5.00;5.00;;;;;22.74;58.30;101211.00;5070831;27;45353;-55
2021/08/22 01:37:54;;;;;;;;;6.00;5.00;;;;;22.73;58.06;101217.41;5065674;28;48097;-56
2021/08/22 01:40:22;;;;;;;;;4.67;4.67;;;;;22.70;58.09;101223.00;5069884;27;45424;-55
2021/08/22 01:42:49;;;;;;;;;5.00;5.00;;;;;22.67;57.96;101220.50;5066005;28;45413;-55
2021/08/22 01:45:18;;;;;;;;;4.67;4.67;;;;;22.66;57.85;101227.75;5069727;27;45673;-55
2021/08/22 01:47:48;;;;;;;;;6.00;5.33;;;;;22.66;57.82;101224.19;5066367;28;47038;-55
2021/08/22 01:50:16;;;;;;;;;7.33;6.00;;;;;22.61;58.28;101219.94;5068352;27;45685;-55
2021/08/22 01:52:42;;;;;;;;;4.67;4.67;;;;;22.59;57.56;101210.16;5067393;28;45512;-53
2021/08/22 01:55:08;;;;;;;;;6.00;4.00;;;;;22.57;57.96;101209.41;5067784;27;45496;-55
2021/08/22 01:57:38;;;;;;;;;4.00;3.67;;;;;22.55;57.74;101211.34;5067564;28;45950;-55
2021/08/22 02:00:05;;;;;;;;;4.33;4.33;;;;;22.54;58.30;101210.47;5060836;27;45808;-55
2021/08/22 02:02:30;;;;;;;;;6.00;5.33;;;;;22.55;57.94;101208.63;5055352;28;45511;-55
2021/08/22 02:05:00;;;;;;;;;5.00;5.00;;;;;22.57;57.72;101212.09;5060081;28;45694;-55
2021/08/22 02:07:31;;;;;;;;;4.67;4.00;;;;;22.57;57.93;101218.38;5074318;28;48795;-55
2021/08/22 02:10:15;;;;;;;;;4.00;4.00;;;;;22.58;57.62;101227.38;5071471;27;45625;-55
2021/08/22 02:12:41;;;;;;;;;4.33;4.33;;;;;22.57;58.06;101226.50;5050336;28;45285;-55
2021/08/22 02:15:11;;;;;;;;;4.00;4.00;;;;;22.53;57.79;101227.66;5055081;28;45689;-55
2021/08/22 02:17:49;;;;;;;;;4.33;3.00;;;;;22.52;57.93;101225.94;5070359;28;47294;-56
2021/08/22 02:20:17;;;;;;;;;4.00;4.00;;;;;22.52;57.56;101217.81;5060088;28;45430;-55
2021/08/22 02:22:46;;;;;;;;;5.00;5.00;;;;;22.52;57.81;101220.53;5058059;28;45289;-55
2021/08/22 02:25:12;;;;;;;;;6.00;6.00;;;;;22.53;57.86;101229.50;5075805;28;45290;-56
2021/08/22 02:27:38;;;;;;;;;4.00;4.00;;;;;22.54;57.72;101223.13;5059824;28;45527;-55
2021/08/22 02:30:05;;;;;;;;;3.33;3.33;;;;;22.54;57.53;101225.84;5059766;28;46019;-55
2021/08/22 02:32:30;;;;;;;;;5.33;4.67;;;;;22.51;57.58;101229.59;5058438;28;45444;-56
2021/08/22 02:34:56;;;;;;;;;4.67;4.33;;;;;22.47;57.16;101235.28;5075474;28;45512;-55
2021/08/22 02:37:22;;;;;;;;;5.00;4.00;;;;;22.44;57.60;101222.84;5059466;28;47503;-54
2021/08/22 02:39:48;;;;;;;;;3.33;3.00;;;;;22.44;57.37;101236.34;5052152;28;45271;-55
2021/08/22 02:42:15;;;;;;;;;6.67;6.67;;;;;22.42;57.39;101226.59;5054920;28;45286;-56
2021/08/22 02:44:42;;;;;;;;;5.33;5.33;;;;;22.40;57.31;101223.13;5059653;28;45596;-54
2021/08/22 02:47:08;;;;;;;;;6.00;6.00;;;;;22.38;57.38;101227.78;5059147;28;48259;-56
2021/08/22 02:49:33;;;;;;;;;4.67;4.67;;;;;22.36;56.98;101227.88;5059595;28;45752;-53
2021/08/22 02:51:59;;;;;;;;;5.00;5.00;;;;;22.34;57.51;101229.78;5059506;28;45282;-54
2021/08/22 02:54:24;;;;;;;;;5.33;5.00;;;;;22.30;57.09;101231.81;5059597;28;45436;-51
2021/08/22 02:56:50;;;;;;;;;5.00;4.67;;;;;22.28;57.55;101239.16;5057615;28;47138;-56
2021/08/22 02:59:15;;;;;;;;;4.00;4.00;;;;;22.26;57.47;101237.53;5059598;28;45294;-54
2021/08/22 03:01:41;;;;;;;;;3.33;3.33;;;;;22.26;57.29;101224.00;5059487;28;45670;-55
2021/08/22 03:04:06;;;;;;;;;4.67;4.67;;;;;22.25;56.73;101225.84;5059605;28;45477;-54
2021/08/22 03:06:32;;;;;;;;;4.00;4.00;;;;;22.21;56.68;101226.97;5059099;28;46827;-55
2021/08/22 03:08:57;;;;;;;;;5.00;5.00;;;;;22.15;56.87;101235.47;5058776;28;45318;-54
2021/08/22 03:11:23;;;;;;;;;5.00;5.00;;;;;22.12;56.95;101230.28;5059827;28;45311;-54
2021/08/22 03:13:49;;;;;;;;;5.00;5.00;;;;;22.10;56.93;101228.59;5065909;27;45263;-54
2021/08/22 03:16:15;;;;;;;;;6.75;6.50;;;;;22.08;56.70;101220.59;5067072;28;47545;-55
2021/08/22 03:18:40;;;;;;;;;5.67;4.00;;;;;22.05;56.62;101220.75;5060508;28;45229;-55
2021/08/22 03:21:06;;;;;;;;;5.00;4.33;;;;;22.02;56.43;101220.94;5068721;27;45317;-55
2021/08/22 03:23:32;;;;;;;;;4.33;4.00;;;;;21.97;56.58;101221.22;5066766;28;45211;-55
2021/08/22 03:25:57;;;;;;;;;5.67;4.00;;;;;21.92;56.75;101223.34;5068133;27;48038;-53
2021/08/22 03:28:23;;;;;;;;;4.67;4.33;;;;;21.91;56.37;101223.44;5082112;27;45617;-54
2021/08/22 03:30:51;;;;;;;;;7.00;6.00;;;;;21.87;56.79;101220.06;5066850;28;45545;-54
2021/08/22 03:33:19;;;;;;;;;5.33;5.33;;;;;21.87;56.92;101227.28;5066554;27;45547;-57
2021/08/22 03:35:46;;;;;;;;;5.67;4.67;;;;;21.84;56.40;101231.03;5067105;27;46454;-56
2021/08/22 03:38:11;;;;;;;;;8.00;6.67;;;;;21.76;56.51;101219.84;5066496;28;45306;-55
2021/08/22 03:40:37;;;;;;;;;6.33;5.33;;;;;21.73;56.96;101217.31;5066300;28;45329;-56
2021/08/22 03:43:02;;;;;;;;;6.00;5.00;;;;;21.71;56.32;101220.09;5066897;28;45647;-55
2021/08/22 03:45:28;;;;;;;;;5.00;4.33;;;;;21.70;56.95;101223.75;5066331;27;47153;-56
2021/08/22 03:47:53;;;;;;;;;5.00;4.00;;;;;21.69;56.32;101224.72;5065413;28;45413;-54
2021/08/22 03:50:19;;;;;;;;;4.00;4.00;;;;;21.67;56.42;101223.06;5065518;28;45322;-56
2021/08/22 03:52:47;;;;;;;;;4.00;4.00;;;;;21.65;56.90;101227.72;5066863;28;45427;-54
2021/08/22 03:55:13;;;;;;;;;5.00;5.00;;;;;21.64;56.98;101223.28;5064085;27;45776;-55
2021/08/22 03:57:39;;;;;;;;;6.00;6.00;;;;;21.62;56.97;101233.31;5057113;28;45650;-55
2021/08/22 04:00:05;;;;;;;;;8.67;6.00;;;;;21.59;56.54;101230.75;5057459;28;45384;-54
2021/08/22 04:02:30;;;;;;;;;5.33;5.33;;;;;21.56;56.39;101237.22;5054903;28;45330;-53
2021/08/22 04:04:56;;;;;;;;;5.00;5.00;;;;;21.55;56.40;101226.50;5058106;28;48094;-57
2021/08/22 04:07:21;;;;;;;;;6.75;6.75;;;;;21.54;56.24;101233.75;5090339;27;45344;-54
2021/08/22 04:09:47;;;;;;;;;5.00;5.00;;;;;21.53;56.05;101231.13;5057105;28;45299;-54
2021/08/22 04:12:12;;;;;;;;;7.67;5.00;;;;;21.50;56.14;101234.91;5058738;28;45317;-54
2021/08/22 04:14:38;;;;;;;;;8.33;4.00;;;;;21.47;56.30;101242.28;5046489;28;47217;-53
2021/08/22 04:17:04;;;;;;;;;4.00;4.00;;;;;21.45;56.84;101239.69;5081969;27;45651;-54
2021/08/22 04:19:29;;;;;;;;;6.00;4.33;;;;;21.41;56.65;101239.00;5058354;28;45361;-55
2021/08/22 04:21:56;;;;;;;;;8.00;5.00;;;;;21.42;56.36;101237.16;5058628;28;45445;-55
2021/08/22 04:24:22;;;;;;;;;5.67;5.33;;;;;21.42;56.28;101239.88;5073485;28;48225;-55
2021/08/22 04:26:48;;;;;;;;;6.00;5.00;;;;;21.42;56.33;101246.13;5057983;28;45371;-54
2021/08/22 04:29:13;;;;;;;;;7.00;7.00;;;;;21.43;56.48;101244.31;5056850;28;45361;-55
2021/08/22 04:31:39;;;;;;;;;6.33;5.00;;;;;21.43;56.23;101239.78;5048825;28;45658;-55
2021/08/22 04:34:05;;;;;;;;;6.50;6.50;;;;;21.43;56.02;101236.19;5057440;28;46234;-55
2021/08/22 04:36:30;;;;;;;;;8.00;6.00;;;;;21.43;56.53;101244.31;5057638;28;45990;-55
2021/08/22 04:38:56;;;;;;;;;6.00;6.00;;;;;21.41;56.36;101239.00;5058256;28;45289;-55
2021/08/22 04:41:22;;;;;;;;;5.33;5.33;;;;;21.41;56.45;101240.81;5053458;28;45587;-55
2021/08/22 04:43:51;;;;;;;;;5.33;4.67;;;;;21.38;55.97;101236.47;5061397;28;47787;-54
2021/08/22 04:46:17;;;;;;;;;7.00;7.00;;;;;21.36;56.46;101242.94;5060040;28;45863;-55
2021/08/22 04:48:42;;;;;;;;;5.33;5.33;;;;;21.35;55.72;101239.38;5047711;28;45339;-54
2021/08/22 04:51:08;;;;;;;;;5.67;5.67;;;;;21.34;56.14;101239.44;5061689;27;45279;-53
2021/08/22 04:53:34;;;;;;;;;5.00;5.00;;;;;21.33;56.10;101245.78;5060078;28;46214;-55
2021/08/22 04:56:00;;;;;;;;;5.00;5.00;;;;;21.31;56.14;101251.28;5056438;28;45422;-55
2021/08/22 04:58:25;;;;;;;;;6.33;5.33;;;;;21.29;55.91;101252.34;5061260;28;45591;-55
2021/08/22 05:00:51;;;;;;;;;5.00;5.00;;;;;21.28;55.93;101253.28;5054632;28;45559;-56
2021/08/22 05:03:16;;;;;;;;;5.33;5.00;;;;;21.29;55.71;101246.94;5060215;28;48103;-55
2021/08/22 05:05:42;;;;;;;;;5.67;5.67;;;;;21.29;55.52;101242.41;5060835;28;45216;-55
2021/08/22 05:08:07;;;;;;;;;4.67;4.67;;;;;21.27;55.79;101257.81;5053362;28;45491;-53
2021/08/22 05:10:35;;;;;;;;;4.00;3.00;;;;;21.26;55.74;101261.50;5061102;28;45422;-55
2021/08/22 05:13:00;;;;;;;;;4.00;4.00;;;;;21.22;55.62;101262.59;5060444;28;47273;-55
2021/08/22 05:15:26;;;;;;;;;6.67;6.67;;;;;21.21;55.55;101255.44;5060082;28;45350;-55
2021/08/22 05:17:51;;;;;;;;;6.00;5.33;;;;;21.19;56.03;101254.66;5059018;28;45485;-54
2021/08/22 05:20:17;;;;;;;;;5.33;5.33;;;;;21.17;55.74;101257.44;5060607;28;45356;-55
2021/08/22 05:22:42;;;;;;;;;4.33;4.33;;;;;21.15;55.46;101255.81;5058999;28;47258;-53
2021/08/22 05:25:08;;;;;;;;;4.00;4.00;;;;;21.11;55.92;101256.94;5060543;28;45402;-54
2021/08/22 05:27:33;;;;;;;;;5.00;5.00;;;;;21.08;56.09;101265.19;5060767;28;45303;-54
2021/08/22 05:29:59;;;;;;;;;6.00;4.00;;;;;21.06;55.73;101259.00;5060441;28;45519;-55
2021/08/22 05:32:24;;;;;;;;;7.00;6.00;;;;;21.03;55.75;101259.19;5053113;28;47906;-55
2021/08/22 05:34:50;;;;;;;;;4.00;4.00;;;;;21.01;55.62;101263.81;5057802;28;45882;-55
2021/08/22 05:37:16;;;;;;;;;3.50;3.50;;;;;20.99;55.55;101266.59;5054568;28;45354;-55
2021/08/22 05:39:42;;;;;;;;;3.00;3.00;;;;;21.01;55.68;101263.81;5058951;28;45543;-54
2021/08/22 05:42:08;;;;;;;;;6.00;6.00;;;;;21.00;55.53;101271.03;5059955;28;46000;-55
2021/08/22 05:44:34;;;;;;;;;5.00;4.33;;;;;21.01;56.08;101271.91;5060484;28;45771;-55
2021/08/22 05:47:00;;;;;;;;;4.00;4.00;;;;;21.00;55.47;101275.56;5060206;28;45382;-54
2021/08/22 05:49:25;;;;;;;;;6.33;6.33;;;;;21.00;55.73;101278.25;5059523;28;45496;-55
2021/08/22 05:51:51;;;;;;;;;5.67;5.67;;;;;21.00;55.92;101276.44;5049833;28;46535;-56
2021/08/22 05:54:16;;;;;;;;;5.00;4.00;;;;;21.01;55.69;101278.19;5059844;27;45378;-55
2021/08/22 05:56:42;;;;;;;;;5.67;5.67;;;;;21.03;56.05;101275.38;5049162;28;46010;-54
2021/08/22 05:59:07;;;;;;;;;4.00;4.00;;;;;21.04;55.64;101272.59;5072561;27;45402;-54
2021/08/22 06:01:33;;;;;;;;;5.00;5.00;;;;;21.06;55.67;101278.78;5039706;28;47168;-54
2021/08/22 06:03:58;;;;;;;;;6.33;5.67;;;;;21.07;56.03;101285.03;5056168;28;45915;-54
2021/08/22 06:06:24;;;;;;;;;5.67;5.67;;;;;21.09;55.46;101285.84;5052048;28;45436;-54
2021/08/22 06:08:49;;;;;;;;;6.67;6.00;;;;;21.11;55.67;101295.59;5043360;28;45536;-54
2021/08/22 06:11:15;;;;;;;;;4.67;4.00;;;;;21.08;55.26;101294.88;5049239;28;47072;-52
2021/08/22 06:13:40;;;;;;;;;7.33;6.67;;;;;21.09;55.84;101299.34;5058626;28;45441;-54
2021/08/22 06:16:06;;;;;;;;;5.00;5.00;;;;;21.09;56.01;101299.34;5065924;28;45515;-56
2021/08/22 06:18:32;;;;;;;;;5.33;4.33;;;;;21.10;55.55;101301.09;5056079;28;45579;-53
2021/08/22 06:20:57;;;;;;;;;3.33;3.33;;;;;21.10;55.91;101303.78;5060368;27;47297;-55
2021/08/22 06:23:23;;;;;;;;;4.67;4.00;;;;;21.10;55.83;101304.66;5058717;28;45400;-53
2021/08/22 06:25:48;;;;;;;;;5.00;5.00;;;;;21.10;55.47;101301.09;5056785;28;45456;-55
2021/08/22 06:28:14;;;;;;;;;4.67;4.00;;;;;21.09;55.62;101311.00;5068315;28;45745;-55
2021/08/22 06:30:41;;;;;;;;;7.33;5.00;;;;;21.11;55.67;101308.22;5058394;28;46103;-56
2021/08/22 06:33:06;;;;;;;;;4.00;3.33;;;;;21.14;55.55;101316.13;5061640;28;45560;-55
2021/08/22 06:35:32;;;;;;;;;4.00;3.67;;;;;21.14;55.91;101303.50;5066342;27;46373;-54
2021/08/22 06:37:57;;;;;;;;;3.33;3.00;;;;;21.16;55.27;101301.59;5062260;28;45499;-54
2021/08/22 06:40:23;;;;;;;;;3.00;3.00;;;;;21.20;55.70;101309.50;5057315;28;46121;-55
2021/08/22 06:42:49;;;;;;;;;5.00;5.00;;;;;21.21;55.31;101312.13;5056427;28;45397;-56
2021/08/22 06:45:14;;;;;;;;;3.67;3.67;;;;;21.25;55.26;101313.75;5069253;28;45310;-56
2021/08/22 06:47:40;;;;;;;;;6.00;5.00;;;;;21.25;55.82;101319.13;5056195;28;45668;-54
2021/08/22 06:50:05;;;;;;;;;4.67;4.33;;;;;21.26;55.27;101323.56;5058164;28;45863;-55
2021/08/22 06:52:31;;;;;;;;;5.25;5.25;;;;;21.28;55.33;101328.88;5055248;28;45836;-56
2021/08/22 06:54:57;;;;;;;;;4.33;4.33;;;;;21.32;55.23;101334.00;5056129;28;45236;-56
2021/08/22 06:57:22;;;;;;;;;7.50;5.50;;;;;21.37;55.05;101334.66;5057996;28;45675;-56
2021/08/22 06:59:48;;;;;;;;;3.00;3.00;;;;;21.44;55.40;101333.31;5055854;28;45462;-54
2021/08/22 07:02:13;;;;;;;;;3.67;3.67;;;;;21.52;55.15;101327.50;5057049;28;45695;-53
2021/08/22 07:04:39;;;;;;;;;4.33;4.00;;;;;21.59;55.26;101341.50;5058987;28;45330;-55
2021/08/22 07:07:05;;;;;;;;;5.67;3.67;;;;;21.64;55.58;101340.28;5059222;27;45388;-54
2021/08/22 07:09:30;;;;;;;;;5.00;5.00;;;;;21.69;55.39;101348.97;5048789;27;47143;-54
2021/08/22 07:11:56;;;;;;;;;5.25;5.25;;;;;21.71;54.92;101338.94;5091563;27;45487;-54
2021/08/22 07:14:21;;;;;;;;;4.00;4.00;;;;;21.72;54.91;101338.03;5051611;28;45434;-54
2021/08/22 07:16:48;;;;;;;;;5.00;4.00;;;;;21.75;54.58;101336.97;5053672;28;45368;-54
2021/08/22 07:19:14;;;;;;;;;5.33;4.00;;;;;21.76;54.52;101344.09;5067176;28;46195;-53
2021/08/22 07:21:39;;;;;;;;;4.33;3.00;;;;;21.77;54.32;101347.69;5076658;27;45432;-53
2021/08/22 07:24:05;;;;;;;;;3.00;3.00;;;;;21.79;54.57;101353.84;5093739;27;45435;-54
2021/08/22 07:26:31;;;;;;;;;4.00;4.00;;;;;21.81;54.69;101355.50;5064131;27;45487;-54
2021/08/22 07:28:56;;;;;;;;;4.33;4.33;;;;;21.84;54.43;101347.22;5066176;27;46924;-55
2021/08/22 07:31:22;;;;;;;;;4.00;4.00;;;;;21.89;54.43;101355.94;5061523;28;45374;-55
2021/08/22 07:33:47;;;;;;;;;4.00;4.00;;;;;21.92;54.73;101353.06;5071871;27;45679;-56
2021/08/22 07:36:13;;;;;;;;;5.33;5.00;;;;;21.95;54.68;101354.69;5060772;28;45531;-56
2021/08/22 07:38:39;;;;;;;;;4.33;4.33;;;;;21.96;54.45;101356.44;5065396;28;45620;-55
2021/08/22 07:41:05;;;;;;;;;5.00;5.00;;;;;21.98;54.28;101352.69;5069493;28;45739;-57
2021/08/22 07:43:31;;;;;;;;;5.33;5.33;;;;;22.01;54.09;101360.63;5074641;27;45400;-54
2021/08/22 07:45:57;;;;;;;;;4.00;4.00;;;;;22.04;53.96;101364.97;5065276;27;45626;-56
2021/08/22 07:48:23;;;;;;;;;4.00;3.00;;;;;22.07;54.20;101355.84;5051691;28;47290;-55
2021/08/22 07:50:48;;;;;;;;;4.00;4.00;;;;;22.09;54.00;101356.59;5066464;28;46165;-55
2021/08/22 07:53:18;;;;;;;;;5.00;2.33;;;;;22.13;53.47;101363.59;5085681;27;46369;-55
2021/08/22 07:55:44;;;;;;;;;3.33;3.33;;;;;22.12;53.91;101359.16;5062101;28;45463;-55
2021/08/22 07:58:10;;;;;;;;;2.00;2.00;;;;;22.06;53.39;101354.97;5070634;28;47307;-56
2021/08/22 08:00:35;;;;;;;;;2.00;2.00;;;;;22.02;53.65;101356.97;5076124;28;45396;-55
2021/08/22 08:03:01;;;;;;;;;3.33;3.33;;;;;22.00;53.90;101361.59;5070815;28;45314;-55
2021/08/22 08:05:26;;;;;;;;;3.00;3.00;;;;;21.99;53.49;101364.38;5074464;28;45302;-56
2021/08/22 08:07:52;;;;;;;;;3.00;3.00;;;;;22.00;54.10;101363.41;5066194;27;45469;-55
2021/08/22 08:10:17;;;;;;;;;4.67;3.67;;;;;22.03;53.92;101364.09;5075281;28;45617;-56
2021/08/22 08:12:44;;;;;;;;;4.00;4.00;;;;;22.12;53.70;101370.84;5068005;27;45340;-54
2021/08/22 08:15:11;;;;;;;;;2.33;2.00;;;;;22.19;53.51;101372.19;5077078;28;45630;-54
2021/08/22 08:17:36;;;;;;;;;3.00;3.00;;;;;22.23;53.30;101373.78;5063022;28;45639;-54
2021/08/22 08:20:03;;;;;;;;;3.00;3.00;;;;;22.26;53.38;101381.69;5096292;27;45659;-56
2021/08/22 08:22:29;;;;;;;;;5.00;3.67;;;;;22.26;53.45;101381.69;5080673;27;45439;-54
2021/08/22 08:24:54;;;;;;;;;4.67;3.67;;;;;22.32;53.46;101377.75;5065114;27;45408;-55
2021/08/22 08:27:22;;;;;;;;;3.00;3.00;;;;;22.39;53.46;101380.97;5067581;28;46871;-56
2021/08/22 08:29:48;;;;;;;;;2.67;2.67;;;;;22.47;53.15;101384.91;5077690;27;45661;-56
2021/08/22 08:32:13;;;;;;;;;3.00;2.33;;;;;22.51;53.06;101381.09;5074250;28;45539;-56
2021/08/22 08:34:39;;;;;;;;;3.00;3.00;;;;;22.57;53.00;101390.66;5079547;28;45316;-54
2021/08/22 08:37:04;;;;;;;;;4.00;4.00;;;;;22.64;52.80;101392.03;5070382;27;46991;-55
2021/08/22 08:39:30;;;;;;;;;4.67;4.67;;;;;22.70;52.45;101396.19;5064207;27;45334;-53
2021/08/22 08:42:12;;;;;;;;;3.67;3.67;;;;;22.73;52.52;101396.84;5071762;28;45815;-55
2021/08/22 08:44:38;;;;;;;;;3.00;3.00;;;;;22.75;52.28;101397.66;5061387;28;45406;-53
2021/08/22 08:47:05;;;;;;;;;4.00;4.00;;;;;22.75;52.14;101396.78;5070149;27;46711;-55
2021/08/22 08:49:52;;;;;;;;;3.33;3.33;;;;;22.73;51.95;101398.69;5066601;28;46539;-53
2021/08/22 08:52:36;;;;;;;;;2.67;2.67;;;;;22.71;51.98;101406.03;5055870;28;45456;-55
2021/08/22 08:55:04;;;;;;;;;3.00;3.00;;;;;22.69;51.58;101403.41;5061169;28;45338;-53
2021/08/22 08:57:34;;;;;;;;;4.00;3.00;;;;;22.73;52.00;101399.56;5058125;28;47176;-54
2021/08/22 08:59:59;;;;;;;;;2.67;2.67;;;;;22.80;52.25;101395.53;5060441;28;46133;-53
2021/08/22 09:02:25;;;;;;;;;2.33;2.33;;;;;22.86;51.76;101392.44;5059630;28;45593;-54
2021/08/22 09:05:13;;;;;;;;;3.00;3.00;;;;;22.99;51.92;101400.66;5060779;28;45574;-53
2021/08/22 09:08:09;;;;;;;;;6.00;2.67;;;;;23.04;51.06;101401.28;5048142;28;46171;-54
2021/08/22 09:11:06;;;;;;;;;3.67;3.67;;;;;23.12;51.44;101389.94;5070231;28;45787;-54
2021/08/22 09:14:09;;;;;;;;;4.00;4.00;;;;;23.22;51.28;101404.63;5056511;28;45528;-55
2021/08/22 09:17:12;;;;;;;;;2.00;2.00;;;;;23.23;50.95;101398.25;5061772;27;45409;-53
2021/08/22 09:19:55;;;;;;;;;4.00;4.00;;;;;23.27;51.29;101401.66;5085623;27;46198;-55
2021/08/22 09:22:36;;;;;;;;;2.67;2.67;;;;;23.32;51.02;101407.63;5075803;28;45489;-52
2021/08/22 09:25:19;;;;;;;;;3.00;3.00;;;;;23.34;50.55;101394.88;5072628;27;45879;-54
2021/08/22 09:28:03;;;;;;;;;2.67;2.67;;;;;23.36;50.34;101399.22;5082207;27;45649;-57
2021/08/22 09:31:06;;;;;;;;;3.00;3.00;;;;;23.36;50.07;101401.03;5073879;28;45402;-53
2021/08/22 09:34:10;;;;;;;;;2.00;2.00;;;;;23.33;49.90;101395.84;5069366;28;45346;-55
2021/08/22 09:37:13;;;;;;;;;2.00;2.00;;;;;23.34;50.00;101397.56;5083184;27;45522;-55
2021/08/22 09:40:16;;;;;;;;;3.00;3.00;;;;;23.38;50.06;101397.28;5073455;28;45239;-56
2021/08/22 09:43:19;;;;;;;;;2.00;2.00;;;;;23.44;49.92;101401.44;5064900;27;47099;-55
2021/08/22 09:46:00;;;;;;;;;3.00;3.00;;;;;23.45;49.57;101400.47;5064665;27;45439;-55
2021/08/22 09:48:34;;;;;;;;;1.33;1.33;;;;;23.38;49.84;101413.56;5070685;28;45379;-55
2021/08/22 09:51:38;;;;;;;;;2.00;2.00;;;;;23.34;49.85;101403.00;5081677;28;45401;-54
2021/08/22 09:54:45;;;;;;;;;2.67;2.67;;;;;23.33;49.99;101412.09;5081203;28;45366;-55
2021/08/22 09:57:35;;;;;;;;;2.00;2.00;;;;;23.34;50.28;101414.69;5077717;27;45363;-54
2021/08/22 10:00:51;;;;;;;;;1.67;1.67;;;;;23.36;50.02;101409.16;5079280;27;45301;-56
2021/08/22 10:03:38;;;;;;;;;2.00;2.00;;;;;23.40;49.86;101406.19;5001712;28;45579;-54
2021/08/22 10:06:10;;;;;;;;;2.67;2.67;;;;;23.46;49.27;101408.50;5004385;28;47403;-55
2021/08/22 10:09:02;;;;;;;;;1.00;1.00;;;;;23.54;49.76;101405.28;5036191;28;45310;-56
2021/08/22 10:11:44;;;;;;;;;2.00;2.00;;;;;23.59;49.74;101405.00;5066102;27;45353;-55
2021/08/22 10:14:16;;;;;;;;;2.00;2.00;;;;;23.58;49.36;101398.72;5074595;28;45539;-56
2021/08/22 10:16:47;;;;;;;;;3.33;3.33;;;;;23.59;49.63;101403.16;5077999;27;45500;-54
2021/08/22 10:19:13;;;;;;;;;2.00;2.00;;;;;23.58;49.60;101404.16;5070478;28;45379;-55
2021/08/22 10:21:39;;;;;;;;;2.00;2.00;;;;;23.61;49.36;101403.06;5071012;28;45352;-54
2021/08/22 10:24:37;;;;;;;;;2.00;2.00;;;;;23.61;49.31;101395.81;5065765;28;45333;-55
2021/08/22 10:27:03;;;;;;;;;1.67;1.67;;;;;23.58;49.33;101403.28;5069564;27;46319;-55
2021/08/22 10:29:30;;;;;;;;;3.00;3.00;;;;;23.52;49.34;101407.25;5066174;28;45650;-55
2021/08/22 10:31:55;;;;;;;;;1.33;1.33;;;;;23.51;48.49;101408.22;5068349;28;45430;-56
2021/08/22 10:34:24;;;;;;;;;2.00;2.00;;;;;23.56;49.28;101402.47;5067352;27;45602;-55
2021/08/22 10:36:51;;;;;;;;;2.00;2.00;;;;;23.63;48.85;101403.84;5067973;28;45491;-54
2021/08/22 10:39:23;;;;;;;;;0.67;0.67;;;;;23.67;48.42;101399.97;5081299;27;45469;-55
2021/08/22 10:41:50;;;;;;;;;1.00;1.00;;;;;23.70;48.54;101402.47;5064796;28;45490;-56
2021/08/22 10:44:48;;;;;;;;;0.67;0.67;;;;;23.73;48.09;101408.56;5057232;28;45431;-56
2021/08/22 10:47:20;;;;;;;;;0.00;0.00;;;;;23.66;47.98;101409.94;5042415;28;46909;-56
2021/08/22 10:49:50;;;;;;;;;1.67;1.67;;;;;23.60;48.05;101394.06;5070005;27;45405;-54
2021/08/22 10:52:32;;;;;;;;;3.00;2.00;;;;;23.59;48.33;101396.88;5074625;27;45463;-54
2021/08/22 10:55:10;;;;;;;;;2.00;1.33;;;;;23.62;48.49;101408.38;5091151;27;45568;-54
2021/08/22 10:57:45;;;;;;;;;2.00;1.33;;;;;23.68;48.54;101407.13;5060578;28;47820;-56
2021/08/22 11:00:22;;;;;;;;;3.00;3.00;;;;;23.66;48.24;101409.06;5061372;28;45393;-55
2021/08/22 11:02:51;;;;;;;;;3.00;3.00;;;;;23.59;48.38;101403.16;5058513;28;45451;-54
2021/08/22 11:05:19;;;;;;;;;0.33;0.33;;;;;23.58;48.48;101392.44;5061282;28;45318;-56
2021/08/22 11:07:52;;;;;;;;;1.00;1.00;;;;;23.54;48.56;101402.59;5076994;27;47203;-57
2021/08/22 11:10:23;;;;;;;;;2.00;1.00;;;;;23.50;48.74;101390.19;5060710;28;45864;-53
2021/08/22 11:12:50;;;;;;;;;2.67;1.67;;;;;23.52;48.95;101393.69;5074944;27;45453;-53
2021/08/22 11:15:27;;;;;;;;;3.00;2.00;;;;;23.59;48.86;101383.34;5061863;28;45301;-53
2021/08/22 11:17:56;;;;;;;;;3.00;2.00;;;;;23.68;48.51;101394.44;5076402;27;48356;-55
2021/08/22 11:20:26;;;;;;;;;1.33;1.33;;;;;23.82;48.49;101390.81;5064542;28;45477;-55
2021/08/22 11:23:02;;;;;;;;;2.00;2.00;;;;;23.96;47.93;101379.06;5057854;28;45321;-56
2021/08/22 11:25:28;;;;;;;;;2.00;2.00;;;;;24.09;47.80;101390.81;5082199;27;45403;-53
2021/08/22 11:28:10;;;;;;;;;2.00;1.00;;;;;24.18;47.17;101400.19;5059466;28;47540;-55
2021/08/22 11:30:38;;;;;;;;;1.67;1.67;;;;;24.24;46.96;101394.31;5057311;28;45398;-53
2021/08/22 11:33:04;;;;;;;;;1.00;1.00;;;;;24.36;46.74;101396.22;5063032;28;45432;-53
2021/08/22 11:35:30;;;;;;;;;1.00;1.00;;;;;24.42;46.91;101403.09;5045171;28;45387;-56